プノンペン の空港の天気 - METARとTAF

プノンペン国際空港 ( VDPP / PNH ) - カンボジア プノンペン
飛行場実況気象(Metar)
観測時間10/24 09:00 ICT (10/24 02:00 UTC)
風向・風速北北東 4m/s
視程10km以上
天気現象
全天の4割程度の雲 雲底高度 460m
全天の4割程度の雲 雲底高度 1220m
気温29℃
湿度79%
気圧1012hPa
METARVDPP 240200Z 02007KT 350V070 9999 SCT015 SCT040 29/25 Q1012
過去の天気等 Google飛行場航空写真 Wunderground天気予報

過去48時間のMETAR

飛行場予報(TAF)
発表時間: 10/24 06:00 ICT (10/23 23:00 UTC)
予報対象時間: 24日7時 ICT ~ 25日1時 ICT
風向・風速北東 5m/s
視程10km以上
全天の4割程度の雲 雲底高度 520m
17日13時 ICT ~ 17日18時 ICT に一時的に
視程5000m
天気現象雷雨
全天の4割程度の雲 雲底高度 460m
少しの積乱雲 雲底高度 520m
TAF VDPP 232300Z 2400/2418 05009KT 9999 SCT017
TEMPO 1706/1711 5000 TSRA SCT015 FEW017CB